Dallas, Texas
Traffic Map
Current Weather Conditions
Dallas, Texas
Broken Clouds
Broken Clouds
26°
Feels Like: 27°
Wind Chill: 26° Ceiling: 3900
Heat Index: 27° Visibility: 10mi
Dew Point: 17° Wind: 12mph
Humidity: 60% Direction: 230° (SW)
Pressure: 29.79in Gusts: 0mph
Raw Report DataKDAL 241653Z 23010KT 10SM SCT026 BKN039 BKN047 26/17 A2979 RMK AO2 SLP082 SCT V BKN T02560172
Traffic Incident Summary
Active as of:
Severity:
Category:
InformationThere was an issue retrieving the traffic information for this location. Please try a different location or try again shortly.
Advertisements
At Last! Intellicast now available for iPhone and Android